Time;durP1;ratioP1;P1;durP2;ratioP2;P2;SDS_P1;SDS_P2;PMS_P1;PMS_P2;Temp;Humidity;BMP_temperature;BMP_pressure;BME280_temperature;BME280_humidity;BME280_pressure;Samples;Min_cycle;Max_cycle;Signal;HPM_P1;HPM_P2
2023/01/08 00:02:09;;;;;;;8.38;3.20;;;10.00;99.90;;;;;;5073527;28;20058;-50
2023/01/08 00:04:34;;;;;;;8.20;3.15;;;10.00;99.90;;;;;;5074020;28;20075;-48
2023/01/08 00:07:00;;;;;;;4.43;2.90;;;9.90;99.90;;;;;;5072224;28;20056;-52
2023/01/08 00:09:27;;;;;;;5.45;3.17;;;9.90;99.90;;;;;;5073799;28;20040;-49
2023/01/08 00:11:52;;;;;;;5.28;3.10;;;10.00;99.90;;;;;;5073512;28;20076;-48
2023/01/08 00:14:18;;;;;;;6.03;3.03;;;10.00;99.90;;;;;;5072387;28;20076;-51
2023/01/08 00:16:44;;;;;;;5.72;3.10;;;10.00;99.90;;;;;;5073742;28;20040;-47
2023/01/08 00:19:11;;;;;;;6.22;3.00;;;10.00;99.90;;;;;;5071564;28;20041;-49
2023/01/08 00:21:37;;;;;;;4.85;2.80;;;10.00;99.90;;;;;;5073684;28;20047;-47
2023/01/08 00:24:03;;;;;;;5.72;2.75;;;10.00;99.90;;;;;;5071744;28;20048;-46
2023/01/08 00:26:29;;;;;;;4.97;2.90;;;10.00;99.90;;;;;;5081790;28;20115;-48
2023/01/08 00:28:55;;;;;;;4.72;2.80;;;10.00;99.90;;;;;;5072683;28;20048;-48
2023/01/08 00:31:20;;;;;;;5.15;3.13;;;9.90;99.90;;;;;;5073214;28;20036;-49
2023/01/08 00:33:46;;;;;;;5.95;3.10;;;10.00;99.90;;;;;;5072336;28;20063;-48
2023/01/08 00:36:15;;;;;;;5.90;2.92;;;10.00;99.90;;;;;;5070988;28;20033;-52
2023/01/08 00:38:41;;;;;;;5.50;2.75;;;10.00;99.90;;;;;;5071444;28;20105;-49
2023/01/08 00:41:07;;;;;;;6.38;3.03;;;10.00;99.90;;;;;;5082200;28;20064;-46
2023/01/08 00:43:33;;;;;;;4.97;2.22;;;10.00;99.90;;;;;;5071780;28;20499;-47
2023/01/08 00:45:59;;;;;;;5.25;2.05;;;10.00;99.90;;;;;;5072197;28;20029;-49
2023/01/08 00:48:25;;;;;;;4.25;2.00;;;10.00;99.90;;;;;;5071989;28;20037;-47
2023/01/08 00:50:52;;;;;;;4.78;1.70;;;9.90;99.90;;;;;;5071991;28;20511;-46
2023/01/08 00:53:19;;;;;;;4.10;1.60;;;9.90;99.90;;;;;;5071813;28;20032;-50
2023/01/08 00:55:44;;;;;;;2.90;1.30;;;9.80;99.90;;;;;;5071887;28;20387;-47
2023/01/08 00:58:11;;;;;;;5.40;1.40;;;9.70;99.90;;;;;;5071675;28;20044;-47
2023/01/08 01:00:37;;;;;;;5.07;1.55;;;9.70;99.90;;;;;;5071733;28;20055;-48
2023/01/08 01:03:03;;;;;;;4.35;1.17;;;9.60;99.90;;;;;;5072966;28;20147;-49
2023/01/08 01:05:28;;;;;;;5.32;1.30;;;9.50;99.90;;;;;;5072639;28;20083;-49
2023/01/08 01:07:55;;;;;;;3.72;1.00;;;9.40;99.90;;;;;;5071162;28;20430;-50
2023/01/08 01:10:22;;;;;;;3.65;1.10;;;9.30;99.90;;;;;;5071472;28;20114;-48
2023/01/08 01:12:48;;;;;;;4.60;1.30;;;9.30;99.90;;;;;;5070004;28;20036;-45
2023/01/08 01:15:16;;;;;;;6.10;1.25;;;9.20;99.90;;;;;;5071658;28;20033;-46
2023/01/08 01:17:43;;;;;;;4.38;1.08;;;9.10;99.90;;;;;;5071040;28;20136;-47
2023/01/08 01:20:12;;;;;;;6.22;1.27;;;9.20;99.90;;;;;;5071541;28;20508;-47
2023/01/08 01:22:38;;;;;;;10.07;1.67;;;9.10;99.90;;;;;;5071287;28;20441;-46
2023/01/08 01:25:04;;;;;;;5.78;1.40;;;9.20;99.90;;;;;;5071402;28;20112;-47
2023/01/08 01:27:30;;;;;;;9.95;1.85;;;9.00;99.90;;;;;;5076898;28;20054;-45
2023/01/08 01:29:56;;;;;;;9.13;1.52;;;8.90;99.90;;;;;;5076378;28;20040;-50
2023/01/08 01:32:21;;;;;;;8.65;1.70;;;8.90;99.90;;;;;;5072621;28;20085;-47
2023/01/08 01:34:47;;;;;;;7.57;1.67;;;8.80;99.90;;;;;;5032355;28;1111097;-49
2023/01/08 01:37:13;;;;;;;9.02;1.30;;;8.80;99.90;;;;;;5071719;28;20047;-49
2023/01/08 01:39:42;;;;;;;12.75;2.10;;;8.80;99.90;;;;;;5071187;28;20040;-46
2023/01/08 01:45:21;;;;;;;6.93;1.27;;;8.70;99.90;;;;;;5070543;28;20119;-47
2023/01/08 01:47:50;;;;;;;16.05;2.30;;;8.60;99.90;;;;;;5071520;28;20038;-48
2023/01/08 01:50:38;;;;;;;11.80;2.00;;;8.60;99.90;;;;;;5069335;28;20041;-47
2023/01/08 01:53:26;;;;;;;6.10;1.45;;;8.60;99.90;;;;;;5071383;28;20484;-47
2023/01/08 01:55:52;;;;;;;12.30;1.83;;;8.70;99.90;;;;;;5070276;28;20174;-49
2023/01/08 01:58:29;;;;;;;13.68;2.30;;;8.60;99.90;;;;;;5071267;28;20119;-49
2023/01/08 02:00:59;;;;;;;10.10;2.15;;;8.60;99.90;;;;;;5069724;28;20109;-48
2023/01/08 02:03:29;;;;;;;9.30;1.80;;;8.60;99.90;;;;;;5069498;28;20036;-49
2023/01/08 02:06:09;;;;;;;10.32;1.88;;;8.60;99.90;;;;;;5071231;28;20028;-48
2023/01/08 02:08:41;;;;;;;9.90;1.67;;;8.60;99.90;;;;;;5071385;28;20093;-47
2023/01/08 02:11:20;;;;;;;12.75;2.25;;;8.50;99.90;;;;;;5070154;28;20040;-45
2023/01/08 02:14:05;;;;;;;11.75;1.60;;;8.50;99.90;;;;;;5071403;28;20044;-46
2023/01/08 02:16:44;;;;;;;10.80;1.95;;;8.50;99.90;;;;;;5069864;28;20090;-46
2023/01/08 02:19:15;;;;;;;8.15;1.52;;;8.50;99.90;;;;;;5071001;28;20048;-48
2023/01/08 02:21:58;;;;;;;10.90;1.50;;;8.50;99.90;;;;;;5071321;28;20384;-45
2023/01/08 02:24:55;;;;;;;7.78;1.73;;;8.50;99.90;;;;;;5071208;28;20051;-49
2023/01/08 02:27:24;;;;;;;9.52;1.55;;;8.50;99.90;;;;;;5071342;28;20086;-48
2023/01/08 02:29:52;;;;;;;9.13;1.50;;;8.50;99.90;;;;;;5070939;28;20448;-46
2023/01/08 02:32:18;;;;;;;9.23;1.63;;;8.50;99.90;;;;;;5070720;28;20052;-49
2023/01/08 02:34:44;;;;;;;7.80;2.05;;;8.50;99.90;;;;;;5067132;28;20048;-46
2023/01/08 02:37:10;;;;;;;7.15;1.70;;;8.40;99.90;;;;;;5070887;28;20051;-48
2023/01/08 02:40:00;;;;;;;7.32;1.38;;;8.40;99.90;;;;;;5070834;28;20040;-48
2023/01/08 02:42:28;;;;;;;5.40;1.65;;;8.40;99.90;;;;;;5070759;28;20044;-45
2023/01/08 02:45:08;;;;;;;6.50;1.60;;;8.50;99.90;;;;;;5070854;28;20520;-49
2023/01/08 02:47:44;;;;;;;8.48;1.90;;;8.40;99.90;;;;;;5070743;28;20068;-49
2023/01/08 02:50:16;;;;;;;5.65;1.95;;;8.40;99.90;;;;;;5070220;28;20040;-47
2023/01/08 02:52:55;;;;;;;5.13;2.20;;;8.50;99.90;;;;;;5070693;28;21343;-45
2023/01/08 02:55:22;;;;;;;11.60;2.30;;;8.40;99.90;;;;;;5070571;28;20094;-50
2023/01/08 02:57:49;;;;;;;8.02;2.35;;;8.40;99.90;;;;;;5070704;28;20071;-50
2023/01/08 03:00:15;;;;;;;6.53;2.22;;;8.40;99.90;;;;;;5070907;28;20032;-49
2023/01/08 03:02:42;;;;;;;5.40;2.20;;;8.40;99.90;;;;;;5070363;28;20111;-49
2023/01/08 03:05:18;;;;;;;7.60;2.38;;;8.40;99.90;;;;;;5069381;28;20124;-46
2023/01/08 03:07:43;;;;;;;6.15;2.50;;;8.50;99.90;;;;;;5070652;28;20468;-47
2023/01/08 03:10:10;;;;;;;8.15;2.42;;;8.40;99.90;;;;;;5069515;28;20102;-48
2023/01/08 03:13:02;;;;;;;7.00;2.67;;;8.40;99.90;;;;;;5069821;28;20056;-47
2023/01/08 03:15:37;;;;;;;7.43;2.70;;;8.60;99.90;;;;;;5070428;28;20044;-47
2023/01/08 03:18:11;;;;;;;5.93;2.70;;;8.60;99.90;;;;;;5069444;28;20080;-48
2023/01/08 03:20:37;;;;;;;;;;;8.60;99.90;;;;;;5068985;28;20032;-50
2023/01/08 03:23:06;;;;;;;6.45;2.83;;;8.70;99.90;;;;;;5070574;28;20715;-45
2023/01/08 03:25:35;;;;;;;5.90;3.17;;;8.60;99.90;;;;;;5069874;28;20076;-48
2023/01/08 03:28:04;;;;;;;5.65;3.30;;;8.70;99.90;;;;;;5070672;28;20106;-48
2023/01/08 03:30:30;;;;;;;8.10;3.05;;;8.60;99.90;;;;;;5068482;28;20038;-50
2023/01/08 03:32:58;;;;;;;7.28;3.83;;;8.70;99.90;;;;;;5069833;28;20037;-46
2023/01/08 03:35:25;;;;;;;7.35;3.33;;;8.70;99.90;;;;;;5070044;28;20044;-49
2023/01/08 03:37:59;;;;;;;8.77;4.10;;;8.60;99.90;;;;;;5070465;28;20097;-46
2023/01/08 03:40:39;;;;;;;8.43;3.80;;;8.80;99.90;;;;;;5070376;28;20060;-47
2023/01/08 03:43:05;;;;;;;7.57;3.15;;;8.90;99.90;;;;;;5070610;28;20045;-50
2023/01/08 03:45:31;;;;;;;9.80;3.67;;;8.80;99.90;;;;;;5069642;28;20161;-47
2023/01/08 03:47:59;;;;;;;10.05;3.40;;;8.90;99.90;;;;;;5070425;28;20037;-48
2023/01/08 03:50:29;;;;;;;7.40;3.60;;;8.70;99.90;;;;;;5070365;28;20040;-48
2023/01/08 03:52:54;;;;;;;7.45;3.30;;;9.00;99.90;;;;;;5070156;28;20048;-46
2023/01/08 03:55:20;;;;;;;8.15;3.55;;;8.90;99.90;;;;;;5069803;28;20052;-47
2023/01/08 03:57:46;;;;;;;7.40;3.55;;;8.90;99.90;;;;;;5070241;28;20431;-46
2023/01/08 04:00:12;;;;;;;6.65;3.72;;;8.90;99.90;;;;;;5069646;28;20546;-47
2023/01/08 04:02:37;;;;;;;7.93;3.58;;;8.90;99.90;;;;;;5067195;28;20094;-47
2023/01/08 04:05:04;;;;;;;6.45;3.13;;;8.80;99.90;;;;;;5071143;28;20036;-51
2023/01/08 04:07:29;;;;;;;6.75;2.92;;;8.90;99.90;;;;;;5074191;28;20032;-45
2023/01/08 04:09:55;;;;;;;5.13;2.72;;;8.90;99.90;;;;;;5073316;28;20051;-47
2023/01/08 04:12:23;;;;;;;7.45;3.38;;;9.00;99.90;;;;;;5072642;28;20044;-47
2023/01/08 04:14:48;;;;;;;7.68;2.85;;;9.00;99.90;;;;;;5073589;28;20399;-47
2023/01/08 04:17:14;;;;;;;5.80;2.50;;;9.00;99.90;;;;;;5073851;28;20037;-48
2023/01/08 04:19:40;;;;;;;6.00;2.47;;;8.90;99.90;;;;;;5073256;28;20036;-46
2023/01/08 04:22:09;;;;;;;6.53;2.70;;;9.00;99.90;;;;;;5073395;28;20632;-47
2023/01/08 04:24:35;;;;;;;4.97;2.50;;;8.80;99.90;;;;;;5073062;28;20044;-47
2023/01/08 04:27:00;;;;;;;7.20;2.30;;;8.90;99.90;;;;;;5073500;28;20041;-47
2023/01/08 04:29:26;;;;;;;4.70;2.35;;;8.90;99.90;;;;;;5073245;28;20047;-46
2023/01/08 04:31:52;;;;;;;4.38;1.80;;;8.80;99.90;;;;;;5072458;28;20385;-50
2023/01/08 04:34:17;;;;;;;4.82;2.13;;;8.90;99.90;;;;;;5072742;28;20139;-48
2023/01/08 04:36:43;;;;;;;5.38;2.20;;;8.80;99.90;;;;;;5071927;28;20041;-48
2023/01/08 04:39:10;;;;;;;5.15;2.20;;;8.80;99.90;;;;;;5073292;28;20415;-48
2023/01/08 04:41:36;;;;;;;5.40;2.03;;;8.80;99.90;;;;;;5072937;28;20041;-51
2023/01/08 04:44:02;;;;;;;5.07;2.05;;;8.80;99.90;;;;;;5072789;28;20043;-48
2023/01/08 04:46:28;;;;;;;6.15;2.30;;;8.80;99.90;;;;;;5071696;28;20037;-48
2023/01/08 04:48:53;;;;;;;7.38;2.55;;;8.80;99.90;;;;;;5071449;28;20028;-47
2023/01/08 04:51:20;;;;;;;6.22;2.38;;;8.80;99.90;;;;;;5072021;28;20037;-50
2023/01/08 04:53:46;;;;;;;6.13;2.25;;;8.80;99.90;;;;;;5073079;28;20037;-46
2023/01/08 04:56:12;;;;;;;4.15;1.70;;;8.80;99.90;;;;;;5073767;28;20037;-47
2023/01/08 04:58:39;;;;;;;7.30;2.65;;;8.70;99.90;;;;;;5076892;28;20044;-46
2023/01/08 05:01:12;;;;;;;7.13;2.15;;;8.60;99.90;;;;;;5072649;28;20056;-46
2023/01/08 05:03:38;;;;;;;7.55;2.42;;;8.70;99.90;;;;;;5072094;28;20082;-46
2023/01/08 05:06:04;;;;;;;7.28;2.28;;;8.60;99.90;;;;;;5072876;28;20165;-46
2023/01/08 05:08:30;;;;;;;4.13;1.92;;;8.50;99.90;;;;;;5072622;28;20036;-47
2023/01/08 05:10:58;;;;;;;4.78;2.05;;;8.60;99.90;;;;;;5072122;28;20392;-49
2023/01/08 05:13:24;;;;;;;5.53;2.40;;;8.50;99.90;;;;;;5072246;28;20037;-48
2023/01/08 05:15:49;;;;;;;6.57;2.47;;;8.50;99.90;;;;;;5070032;28;20039;-46
2023/01/08 05:18:15;;;;;;;4.45;2.40;;;8.50;99.90;;;;;;5072591;28;20051;-48
2023/01/08 05:20:41;;;;;;;5.72;2.58;;;8.50;99.90;;;;;;5072309;28;20033;-47
2023/01/08 05:23:06;;;;;;;6.32;2.65;;;8.50;99.90;;;;;;5072266;28;20044;-48
2023/01/08 05:25:33;;;;;;;10.25;3.42;;;8.50;99.90;;;;;;5072294;28;20029;-47
2023/01/08 05:27:58;;;;;;;7.32;2.80;;;8.70;99.90;;;;;;5070930;28;20098;-46
2023/01/08 05:30:24;;;;;;;5.53;3.03;;;8.50;99.90;;;;;;5072544;28;20064;-47
2023/01/08 05:32:50;;;;;;;6.75;3.20;;;8.50;99.90;;;;;;5071929;28;20032;-48
2023/01/08 05:35:16;;;;;;;8.65;3.35;;;8.50;99.90;;;;;;5068409;28;20102;-47
2023/01/08 05:37:41;;;;;;;7.07;3.15;;;8.60;99.90;;;;;;5071795;28;20040;-48
2023/01/08 05:40:07;;;;;;;6.80;3.15;;;8.60;99.90;;;;;;5071770;28;20036;-49
2023/01/08 05:42:34;;;;;;;6.97;3.28;;;8.50;99.90;;;;;;5072073;28;20068;-51
2023/01/08 05:45:00;;;;;;;7.43;3.33;;;8.50;99.90;;;;;;5071445;28;20086;-50
2023/01/08 05:47:29;;;;;;;6.15;3.45;;;8.40;99.90;;;;;;5071692;28;20041;-49
2023/01/08 05:49:55;;;;;;;7.63;2.90;;;8.40;99.90;;;;;;5074885;28;20127;-46
2023/01/08 05:52:21;;;;;;;7.00;3.22;;;8.30;99.90;;;;;;5071911;28;20460;-50
2023/01/08 05:54:46;;;;;;;5.75;3.08;;;8.20;99.90;;;;;;5071356;28;20119;-50
2023/01/08 05:57:12;;;;;;;6.80;3.05;;;8.20;99.90;;;;;;5071512;28;20032;-48
2023/01/08 05:59:38;;;;;;;9.55;3.50;;;8.40;99.90;;;;;;5069660;28;20033;-50
2023/01/08 06:02:03;;;;;;;8.63;3.30;;;8.20;99.90;;;;;;5070850;28;20852;-49
2023/01/08 06:04:29;;;;;;;6.35;3.13;;;8.20;99.90;;;;;;5071711;28;20041;-48
2023/01/08 06:06:55;;;;;;;6.07;3.10;;;8.40;99.90;;;;;;5071521;28;20033;-48
2023/01/08 06:09:20;;;;;;;9.10;3.70;;;8.10;99.90;;;;;;5071459;28;20429;-47
2023/01/08 06:11:46;;;;;;;6.65;2.40;;;8.30;99.90;;;;;;5070035;28;20048;-48
2023/01/08 06:14:14;;;;;;;7.03;2.85;;;8.30;99.90;;;;;;5070824;28;20063;-46
2023/01/08 06:16:41;;;;;;;7.03;2.60;;;8.20;99.90;;;;;;5071490;28;20044;-49
2023/01/08 06:19:09;;;;;;;5.97;2.50;;;8.40;99.90;;;;;;5069583;28;20063;-47
2023/01/08 06:21:34;;;;;;;6.38;2.28;;;8.30;99.90;;;;;;5070006;28;20071;-47
2023/01/08 06:24:00;;;;;;;7.30;2.40;;;8.40;99.90;;;;;;5071393;28;20464;-46
2023/01/08 06:26:26;;;;;;;7.97;2.15;;;8.20;99.90;;;;;;5070836;28;20120;-48
2023/01/08 06:28:52;;;;;;;8.50;2.08;;;8.30;99.90;;;;;;5070974;28;20372;-50
2023/01/08 06:31:17;;;;;;;6.47;2.20;;;8.30;99.90;;;;;;5071263;28;20395;-50
2023/01/08 06:33:43;;;;;;;9.07;2.10;;;8.20;99.90;;;;;;5070544;28;20055;-47
2023/01/08 06:36:09;;;;;;;6.68;2.00;;;8.20;99.90;;;;;;5069749;28;20089;-50
2023/01/08 06:38:35;;;;;;;7.07;2.03;;;8.30;99.90;;;;;;5071085;28;20826;-49
2023/01/08 06:41:10;;;;;;;7.00;1.67;;;8.10;99.90;;;;;;5070964;28;20080;-48
2023/01/08 06:43:36;;;;;;;;;;;8.20;99.90;;;;;;5071371;28;20108;-46
2023/01/08 06:46:02;;;;;;;7.43;1.52;;;8.10;99.90;;;;;;5078961;28;19927;-48
2023/01/08 06:48:28;;;;;;;6.57;1.50;;;8.10;99.90;;;;;;5070722;28;20530;-48
2023/01/08 06:50:53;;;;;;;7.50;1.75;;;8.10;99.90;;;;;;5070962;28;20036;-48
2023/01/08 06:53:19;;;;;;;7.63;1.60;;;8.10;99.90;;;;;;5068772;28;20045;-45
2023/01/08 06:55:45;;;;;;;6.00;1.50;;;8.00;99.90;;;;;;5070309;28;20036;-47
2023/01/08 06:58:11;;;;;;;7.50;1.75;;;8.00;99.90;;;;;;5071059;28;20047;-47
2023/01/08 07:00:38;;;;;;;7.00;1.60;;;7.90;99.90;;;;;;5067805;28;20113;-46
2023/01/08 07:03:04;;;;;;;5.38;1.67;;;7.80;99.90;;;;;;5069107;28;20047;-46
2023/01/08 07:05:30;;;;;;;9.07;1.63;;;7.90;99.90;;;;;;5067815;28;20109;-48
2023/01/08 07:07:56;;;;;;;5.13;1.45;;;7.70;99.90;;;;;;5069331;28;20123;-49
2023/01/08 07:10:21;;;;;;;6.10;1.63;;;7.80;99.90;;;;;;5070053;28;20048;-46
2023/01/08 07:12:47;;;;;;;6.57;1.75;;;7.80;99.90;;;;;;5070930;28;20040;-48
2023/01/08 07:15:14;;;;;;;7.20;1.50;;;7.60;99.90;;;;;;5065857;28;20090;-47
2023/01/08 07:17:40;;;;;;;7.43;1.80;;;7.50;99.90;;;;;;5069926;28;20041;-49
2023/01/08 07:20:06;;;;;;;8.18;1.90;;;7.40;99.90;;;;;;5069886;28;20044;-50
2023/01/08 07:22:31;;;;;;;7.60;1.80;;;7.40;99.90;;;;;;5073109;28;20353;-46
2023/01/08 07:24:57;;;;;;;7.53;2.08;;;7.50;99.90;;;;;;5070081;28;20044;-48
2023/01/08 07:27:23;;;;;;;9.43;2.30;;;7.40;99.90;;;;;;5070197;28;20040;-51
2023/01/08 07:29:49;;;;;;;7.88;2.35;;;7.40;99.90;;;;;;5069934;28;20044;-48
2023/01/08 07:32:14;;;;;;;9.70;2.35;;;7.20;99.90;;;;;;5069477;28;20068;-46
2023/01/08 07:34:40;;;;;;;8.40;2.78;;;7.30;99.90;;;;;;5068236;28;20048;-49
2023/01/08 07:37:06;;;;;;;8.50;2.50;;;7.20;99.90;;;;;;5069703;28;20040;-47
2023/01/08 07:39:32;;;;;;;7.25;1.90;;;7.30;99.90;;;;;;5072789;28;20044;-47
2023/01/08 07:41:58;;;;;;;10.05;2.50;;;7.10;99.90;;;;;;5073642;28;20040;-47
2023/01/08 07:44:24;;;;;;;6.10;2.03;;;7.10;99.90;;;;;;5073897;28;20043;-47
2023/01/08 07:46:50;;;;;;;8.65;2.15;;;7.10;99.90;;;;;;5073641;28;20071;-48
2023/01/08 07:49:15;;;;;;;6.63;2.05;;;7.00;99.90;;;;;;5071601;28;20043;-50
2023/01/08 07:51:41;;;;;;;5.15;2.35;;;7.20;99.90;;;;;;5071452;28;20033;-48
2023/01/08 07:54:06;;;;;;;5.38;1.70;;;7.20;99.90;;;;;;5073415;28;20492;-50
2023/01/08 07:56:32;;;;;;;8.57;2.35;;;7.20;99.90;;;;;;5073712;28;20041;-46
2023/01/08 07:58:58;;;;;;;8.32;2.10;;;7.00;99.90;;;;;;5073411;28;20115;-49
2023/01/08 08:01:24;;;;;;;7.70;2.30;;;7.10;99.90;;;;;;5073749;28;20070;-47
2023/01/08 08:03:50;;;;;;;7.93;2.00;;;7.00;99.90;;;;;;5072967;28;20032;-46
2023/01/08 08:06:16;;;;;;;8.35;1.90;;;7.10;99.90;;;;;;5056665;28;20067;-47
2023/01/08 08:08:42;;;;;;;5.65;1.77;;;7.00;99.90;;;;;;5073317;28;20075;-45
2023/01/08 08:11:09;;;;;;;9.65;1.98;;;6.90;99.90;;;;;;5076116;28;20040;-46
2023/01/08 08:13:34;;;;;;;7.25;1.77;;;7.20;99.90;;;;;;5071947;28;20433;-46
2023/01/08 08:16:02;;;;;;;7.60;1.90;;;7.00;99.90;;;;;;5063918;28;20040;-47
2023/01/08 08:18:28;;;;;;;7.75;2.10;;;6.90;99.90;;;;;;5068957;28;20033;-47
2023/01/08 08:20:53;;;;;;;6.68;2.00;;;7.20;99.90;;;;;;5071510;28;20129;-47
2023/01/08 08:23:19;;;;;;;7.82;1.58;;;7.00;99.90;;;;;;5072608;28;20030;-46
2023/01/08 08:25:45;;;;;;;9.07;2.00;;;7.00;99.90;;;;;;5072681;28;20036;-48
2023/01/08 08:28:11;;;;;;;7.03;2.00;;;7.20;99.90;;;;;;5067068;28;20124;-50
2023/01/08 08:30:38;;;;;;;7.85;1.75;;;7.20;99.90;;;;;;5062602;28;20090;-47
2023/01/08 08:33:05;;;;;;;8.73;2.55;;;7.10;99.90;;;;;;5063975;28;20048;-46
2023/01/08 08:35:32;;;;;;;5.38;1.90;;;7.10;99.90;;;;;;5062352;28;20056;-48
2023/01/08 08:37:58;;;;;;;9.48;1.98;;;7.20;99.90;;;;;;5061550;28;20388;-51
2023/01/08 08:40:25;;;;;;;6.70;1.60;;;7.10;99.90;;;;;;5061592;28;20071;-50
2023/01/08 08:43:02;;;;;;;6.72;1.98;;;7.00;99.90;;;;;;5062848;28;20036;-48
2023/01/08 08:45:28;;;;;;;6.85;2.10;;;7.10;99.90;;;;;;5062616;28;20464;-46
2023/01/08 08:47:54;;;;;;;7.50;1.65;;;7.00;99.90;;;;;;5062689;28;20033;-49
2023/01/08 08:50:21;;;;;;;8.48;1.60;;;7.10;99.90;;;;;;5060445;28;20032;-49
2023/01/08 08:52:47;;;;;;;7.93;2.13;;;7.10;99.90;;;;;;5061963;28;20611;-48
2023/01/08 08:55:17;;;;;;;8.02;1.90;;;7.20;99.90;;;;;;5061441;28;20040;-49
2023/01/08 08:57:44;;;;;;;9.80;2.30;;;7.20;99.90;;;;;;5062252;28;20039;-49
2023/01/08 09:00:11;;;;;;;7.45;2.05;;;7.10;99.90;;;;;;5057915;28;20048;-48
2023/01/08 09:02:36;;;;;;;6.88;2.10;;;7.00;99.90;;;;;;5060827;28;20043;-49
2023/01/08 09:05:02;;;;;;;7.93;1.80;;;7.10;99.90;;;;;;5059778;28;20480;-47
2023/01/08 09:07:28;;;;;;;6.93;1.92;;;7.20;99.90;;;;;;5061519;28;20547;-49
2023/01/08 09:09:54;;;;;;;8.27;1.60;;;7.20;99.90;;;;;;5062151;28;20123;-50
2023/01/08 09:12:19;;;;;;;8.65;2.00;;;7.10;99.90;;;;;;5062699;28;20178;-49
2023/01/08 09:14:45;;;;;;;6.22;1.80;;;7.20;99.90;;;;;;5063912;28;20115;-47
2023/01/08 09:17:11;;;;;;;6.30;1.73;;;7.30;99.90;;;;;;5061951;28;20033;-47
2023/01/08 09:19:37;;;;;;;7.22;1.80;;;7.30;99.90;;;;;;5057499;28;20047;-49
2023/01/08 09:22:03;;;;;;;9.57;2.13;;;7.20;99.90;;;;;;5056153;28;20046;-45
2023/01/08 09:24:31;;;;;;;9.82;2.00;;;7.30;99.90;;;;;;5062031;28;20032;-48
2023/01/08 09:26:57;;;;;;;8.43;1.90;;;7.20;99.90;;;;;;5061885;28;20068;-45
2023/01/08 09:29:23;;;;;;;6.45;1.70;;;7.40;99.90;;;;;;5063128;28;20468;-48
2023/01/08 09:31:48;;;;;;;7.20;2.05;;;7.50;99.90;;;;;;5061840;28;20033;-50
2023/01/08 09:34:14;;;;;;;14.95;2.65;;;7.50;99.90;;;;;;5055908;28;20105;-49
2023/01/08 09:36:40;;;;;;;4.43;1.45;;;7.50;99.90;;;;;;5061136;28;20147;-46
2023/01/08 09:39:06;;;;;;;9.98;2.10;;;7.50;99.90;;;;;;5060658;28;20144;-51
2023/01/08 09:41:34;;;;;;;9.27;1.73;;;7.50;99.90;;;;;;5060374;28;20549;-51
2023/01/08 09:44:03;;;;;;;8.75;1.80;;;7.60;99.90;;;;;;5062275;28;20025;-51
2023/01/08 09:46:30;;;;;;;10.05;1.70;;;7.70;99.90;;;;;;5060740;28;20044;-48
2023/01/08 09:49:00;;;;;;;14.73;1.88;;;7.80;99.90;;;;;;5061685;28;20047;-47
2023/01/08 09:51:37;;;;;;;11.45;1.80;;;7.80;99.90;;;;;;5061965;28;20032;-49
2023/01/08 09:54:04;;;;;;;11.70;1.90;;;7.80;99.90;;;;;;5057456;28;20387;-49
2023/01/08 09:56:33;;;;;;;12.88;1.63;;;7.90;99.90;;;;;;5058995;28;20052;-50
2023/01/08 09:59:00;;;;;;;9.25;1.63;;;7.90;99.90;;;;;;5059648;28;20062;-49
2023/01/08 10:01:29;;;;;;;7.50;1.55;;;7.90;99.90;;;;;;5058722;28;20045;-47
2023/01/08 10:04:04;;;;;;;7.00;1.90;;;7.90;99.90;;;;;;5058437;28;20040;-48
2023/01/08 10:06:31;;;;;;;11.07;2.08;;;8.00;99.90;;;;;;5060450;28;20082;-49
2023/01/08 10:08:57;;;;;;;7.35;1.30;;;8.00;99.90;;;;;;5060020;28;20032;-50
2023/01/08 10:11:26;;;;;;;8.73;1.83;;;8.10;99.90;;;;;;5059577;28;20036;-50
2023/01/08 10:13:54;;;;;;;11.20;1.50;;;8.10;99.90;;;;;;5058219;28;20044;-48
2023/01/08 10:16:29;;;;;;;9.02;1.75;;;8.20;99.90;;;;;;5060114;28;20028;-49
2023/01/08 10:18:57;;;;;;;8.88;1.65;;;8.30;99.90;;;;;;5058668;28;20392;-50
2023/01/08 10:21:29;;;;;;;12.18;1.90;;;8.40;99.90;;;;;;5056246;28;20534;-45
2023/01/08 10:23:55;;;;;;;10.55;1.73;;;8.50;99.90;;;;;;5056681;28;20040;-47
2023/01/08 10:26:35;;;;;;;11.35;2.03;;;8.60;99.90;;;;;;5059382;28;20028;-48
2023/01/08 10:29:09;;;;;;;10.80;2.05;;;8.70;99.90;;;;;;5052565;28;20385;-48
2023/01/08 10:31:51;;;;;;;8.05;1.30;;;9.10;99.90;;;;;;5055302;28;20032;-51
2023/01/08 10:34:24;;;;;;;10.77;1.90;;;9.40;99.90;;;;;;5050512;28;20488;-49
2023/01/08 10:36:51;;;;;;;8.88;2.10;;;9.60;99.90;;;;;;5054987;28;20032;-50
2023/01/08 10:39:24;;;;;;;11.20;2.00;;;9.60;99.90;;;;;;5056717;28;20125;-47
2023/01/08 10:41:52;;;;;;;8.07;1.95;;;9.80;99.90;;;;;;5054122;28;20475;-48
2023/01/08 10:44:21;;;;;;;11.05;2.03;;;9.80;99.90;;;;;;5055729;28;20432;-49
2023/01/08 10:46:51;;;;;;;9.07;1.77;;;10.00;99.90;;;;;;5054687;28;20040;-48
2023/01/08 10:49:31;;;;;;;11.43;2.08;;;10.00;99.90;;;;;;5056522;28;20040;-49
2023/01/08 10:51:57;;;;;;;7.28;1.52;;;10.00;99.90;;;;;;5058990;28;20036;-48
2023/01/08 10:54:31;;;;;;;10.32;1.98;;;10.20;99.90;;;;;;5057207;28;20043;-47
2023/01/08 10:56:57;;;;;;;8.70;1.38;;;9.80;99.90;;;;;;5057327;28;20044;-49
2023/01/08 10:59:23;;;;;;;10.55;1.80;;;9.50;99.90;;;;;;5056035;28;20135;-46
2023/01/08 11:01:51;;;;;;;9.35;2.35;;;9.30;99.90;;;;;;5057597;28;20039;-48
2023/01/08 11:04:25;;;;;;;11.80;2.33;;;9.30;99.90;;;;;;5058237;28;20037;-49
2023/01/08 11:06:51;;;;;;;10.75;2.35;;;9.30;99.90;;;;;;5058813;28;20075;-48
2023/01/08 11:09:29;;;;;;;12.75;2.13;;;9.20;99.90;;;;;;5054086;28;20071;-48
2023/01/08 11:11:56;;;;;;;11.45;1.95;;;9.30;99.90;;;;;;5053876;28;20111;-48
2023/01/08 11:14:31;;;;;;;10.52;2.78;;;9.30;99.90;;;;;;5054263;28;20041;-50
2023/01/08 11:16:58;;;;;;;11.82;2.00;;;9.30;99.90;;;;;;5059661;28;20035;-50
2023/01/08 11:19:27;;;;;;;10.98;2.22;;;9.30;99.90;;;;;;5063319;28;20045;-46
2023/01/08 11:21:57;;;;;;;9.23;1.92;;;9.20;99.90;;;;;;5059955;28;20044;-51
2023/01/08 11:24:28;;;;;;;11.15;2.03;;;9.30;99.90;;;;;;5060580;28;20037;-48
2023/01/08 11:27:24;;;;;;;11.15;2.90;;;9.30;99.90;;;;;;5059194;28;20029;-49
2023/01/08 11:30:05;;;;;;;7.82;1.92;;;9.30;99.90;;;;;;5059556;28;20037;-48
2023/01/08 11:32:53;;;;;;;12.93;2.13;;;9.40;99.90;;;;;;5061429;28;20052;-49
2023/01/08 11:35:24;;;;;;;11.82;2.25;;;9.80;99.90;;;;;;5059279;28;20131;-52
2023/01/08 11:37:53;;;;;;;9.27;2.33;;;10.10;99.90;;;;;;5064097;28;20090;-49
2023/01/08 11:40:43;;;;;;;10.98;2.00;;;10.10;99.90;;;;;;5063870;28;20041;-49
2023/01/08 11:43:20;;;;;;;9.18;1.80;;;10.40;99.90;;;;;;5050512;28;20033;-50
2023/01/08 11:45:55;;;;;;;7.72;1.80;;;10.10;99.90;;;;;;5058898;28;20033;-49
2023/01/08 11:48:42;;;;;;;10.05;2.17;;;10.30;99.90;;;;;;5055738;28;20040;-47
2023/01/08 11:51:28;;;;;;;12.52;2.20;;;10.60;99.90;;;;;;5056637;28;20093;-49
2023/01/08 11:54:26;;;;;;;8.77;1.92;;;10.70;99.90;;;;;;5058693;28;20073;-49
2023/01/08 11:57:07;;;;;;;6.28;1.50;;;10.40;99.90;;;;;;5033087;28;20064;-49
2023/01/08 11:59:45;;;;;;;13.32;2.10;;;10.70;99.90;;;;;;5053032;28;20049;-51
2023/01/08 12:02:20;;;;;;;9.50;1.85;;;10.50;99.90;;;;;;5055299;28;20076;-48
2023/01/08 12:04:56;;;;;;;8.93;1.90;;;10.50;99.90;;;;;;5055778;28;20538;-51
2023/01/08 12:07:30;;;;;;;9.05;2.10;;;10.30;99.90;;;;;;5055441;28;20163;-45
2023/01/08 12:10:27;;;;;;;7.57;1.80;;;10.10;99.90;;;;;;5053728;28;20036;-49
2023/01/08 12:13:07;;;;;;;11.40;2.03;;;10.10;99.90;;;;;;5044484;28;20332;-49
2023/01/08 12:15:42;;;;;;;8.93;1.65;;;9.80;99.90;;;;;;5064200;28;20514;-51
2023/01/08 12:18:23;;;;;;;8.65;1.90;;;10.00;99.90;;;;;;5056670;28;20128;-48
2023/01/08 12:21:02;;;;;;;10.60;2.33;;;10.30;99.90;;;;;;5063730;28;20047;-51
2023/01/08 12:23:49;;;;;;;8.27;1.83;;;10.60;99.90;;;;;;5064016;28;20028;-48
2023/01/08 12:26:33;;;;;;;10.63;2.15;;;10.80;99.90;;;;;;5063979;28;20384;-51
2023/01/08 12:29:23;;;;;;;9.30;2.15;;;11.00;99.90;;;;;;5062698;28;20036;-50
2023/01/08 12:32:01;;;;;;;10.82;1.65;;;11.00;99.90;;;;;;5061517;28;20395;-51
2023/01/08 12:34:30;;;;;;;11.40;2.08;;;11.10;99.90;;;;;;5063003;28;20059;-47
2023/01/08 12:37:03;;;;;;;8.57;1.92;;;11.40;99.90;;;;;;5064671;28;20120;-49
2023/01/08 12:39:36;;;;;;;9.35;2.00;;;11.50;99.90;;;;;;5064239;28;20028;-46
2023/01/08 12:42:23;;;;;;;10.02;2.38;;;11.60;99.90;;;;;;5062515;28;20092;-51
2023/01/08 12:44:53;;;;;;;10.77;2.30;;;11.50;99.90;;;;;;5060472;28;20491;-48
2023/01/08 12:47:25;;;;;;;6.57;1.83;;;11.60;99.90;;;;;;5062097;28;20044;-50
2023/01/08 12:50:18;;;;;;;10.02;1.98;;;11.60;99.90;;;;;;5062215;28;20457;-50
2023/01/08 12:53:14;;;;;;;7.85;1.92;;;11.60;99.90;;;;;;5064018;28;20036;-51
2023/01/08 12:56:01;;;;;;;10.90;1.83;;;11.70;99.90;;;;;;5063035;28;20040;-49
2023/01/08 12:58:35;;;;;;;7.78;1.50;;;11.80;99.90;;;;;;5063146;28;20082;-50
2023/01/08 13:01:16;;;;;;;7.47;2.00;;;11.80;99.90;;;;;;5063142;28;20144;-52
2023/01/08 13:03:43;;;;;;;6.63;1.50;;;12.00;99.90;;;;;;5061457;28;20377;-50
2023/01/08 13:06:15;;;;;;;7.53;1.55;;;12.10;99.90;;;;;;5061092;28;20093;-48
2023/01/08 13:08:50;;;;;;;5.57;1.27;;;12.20;99.90;;;;;;5062441;28;20564;-52